createdAt,value
2023-05-06T00:00:22.047Z,95346.00
2023-05-06T00:01:22.094Z,95344.00
2023-05-06T00:02:22.193Z,95342.00
2023-05-06T00:03:22.311Z,95342.00
2023-05-06T00:04:22.349Z,95340.00
2023-05-06T00:05:22.495Z,95338.00
2023-05-06T00:06:22.392Z,95340.00
2023-05-06T00:07:22.389Z,95342.00
2023-05-06T00:08:22.440Z,95336.00
2023-05-06T00:09:22.473Z,95336.00
2023-05-06T00:10:22.495Z,95336.00
2023-05-06T00:11:22.534Z,95334.00
2023-05-06T00:12:22.570Z,95330.00
2023-05-06T00:13:22.673Z,95328.00
2023-05-06T00:14:22.631Z,95326.00
2023-05-06T00:15:22.652Z,95326.00
2023-05-06T00:16:22.738Z,95328.00
2023-05-06T00:17:22.789Z,95326.00
2023-05-06T00:18:22.885Z,95324.00
2023-05-06T00:19:22.908Z,95320.00
2023-05-06T00:20:22.977Z,95326.00
2023-05-06T00:21:22.990Z,95322.00
2023-05-06T00:22:23.047Z,95318.00
2023-05-06T00:23:23.058Z,95318.00
2023-05-06T00:24:23.124Z,95318.00
2023-05-06T00:25:23.123Z,95320.00
2023-05-06T00:26:23.176Z,95320.00
2023-05-06T00:27:23.219Z,95322.00
2023-05-06T00:28:23.268Z,95320.00
2023-05-06T00:29:23.376Z,95320.00
2023-05-06T00:30:23.348Z,95317.00
2023-05-06T00:31:24.340Z,95315.00
2023-05-06T00:32:23.508Z,95313.00
2023-05-06T00:33:23.443Z,95311.00
2023-05-06T00:34:23.429Z,95311.00
2023-05-06T00:35:23.433Z,95309.00
2023-05-06T00:36:23.445Z,95311.00
2023-05-06T00:37:23.478Z,95309.00
2023-05-06T00:38:23.526Z,95309.00
2023-05-06T00:39:23.589Z,95309.00
2023-05-06T00:40:23.617Z,95311.00
2023-05-06T00:41:23.635Z,95307.00
2023-05-06T00:42:23.651Z,95307.00
2023-05-06T00:43:23.703Z,95309.00
2023-05-06T00:44:23.771Z,95309.00
2023-05-06T00:45:24.535Z,95309.00
2023-05-06T00:46:23.889Z,95307.00
2023-05-06T00:47:23.817Z,95305.00
2023-05-06T00:48:23.836Z,95307.00
2023-05-06T00:49:23.875Z,95307.00
2023-05-06T00:50:23.892Z,95309.00
2023-05-06T00:51:23.909Z,95309.00
2023-05-06T00:52:23.951Z,95309.00
2023-05-06T00:53:23.941Z,95309.00
2023-05-06T00:54:23.943Z,95309.00
2023-05-06T00:55:23.945Z,95309.00
2023-05-06T00:56:23.957Z,95311.00
2023-05-06T00:57:23.965Z,95309.00
2023-05-06T00:58:23.983Z,95307.00
2023-05-06T00:59:24.014Z,95309.00
2023-05-06T01:00:23.989Z,95307.00
2023-05-06T01:01:24.168Z,95305.00
2023-05-06T01:02:26.452Z,95307.00
2023-05-06T01:03:24.064Z,95307.00
2023-05-06T01:04:24.137Z,95309.00
2023-05-06T01:05:24.095Z,95305.00
2023-05-06T01:06:24.028Z,95307.00
2023-05-06T01:07:24.033Z,95301.00
2023-05-06T01:08:24.060Z,95299.00
2023-05-06T01:09:24.046Z,95297.00
2023-05-06T01:10:24.074Z,95297.00
2023-05-06T01:11:24.076Z,95297.00
2023-05-06T01:12:24.075Z,95295.00
2023-05-06T01:13:24.078Z,95295.00
2023-05-06T01:14:24.092Z,95295.00
2023-05-06T01:15:24.092Z,95295.00
2023-05-06T01:16:24.152Z,95295.00
2023-05-06T01:17:24.267Z,95297.00
2023-05-06T01:18:24.109Z,95293.00
2023-05-06T01:19:24.114Z,95295.00
2023-05-06T01:20:24.126Z,95295.00
2023-05-06T01:21:24.150Z,95295.00
2023-05-06T01:22:24.139Z,95299.00
2023-05-06T01:23:24.137Z,95295.00
2023-05-06T01:24:24.127Z,95295.00
2023-05-06T01:25:24.137Z,95295.00
2023-05-06T01:26:24.139Z,95293.00
2023-05-06T01:27:24.158Z,95293.00
2023-05-06T01:28:24.148Z,95289.00
2023-05-06T01:29:24.167Z,95285.00
2023-05-06T01:30:24.149Z,95285.00
2023-05-06T01:31:24.177Z,95285.00
2023-05-06T01:32:24.169Z,95285.00
2023-05-06T01:33:24.182Z,95281.00
2023-05-06T01:34:24.147Z,95283.00
2023-05-06T01:35:24.146Z,95281.00
2023-05-06T01:36:24.152Z,95281.00
2023-05-06T01:37:24.179Z,95283.00
2023-05-06T01:38:24.176Z,95281.00
2023-05-06T01:39:24.153Z,95279.00
2023-05-06T01:40:24.142Z,95283.00
2023-05-06T01:41:24.138Z,95283.00
2023-05-06T01:42:24.149Z,95283.00
2023-05-06T01:43:24.161Z,95281.00
2023-05-06T01:44:24.160Z,95277.00
2023-05-06T01:45:24.168Z,95279.00
2023-05-06T01:46:24.233Z,95279.00
2023-05-06T01:47:24.214Z,95281.00
2023-05-06T01:48:24.186Z,95285.00
2023-05-06T01:49:24.285Z,95285.00
2023-05-06T01:50:24.197Z,95285.00
2023-05-06T01:51:24.189Z,95285.00
2023-05-06T01:52:24.171Z,95285.00
2023-05-06T01:53:24.174Z,95285.00
2023-05-06T01:54:24.186Z,95285.00
2023-05-06T01:55:24.205Z,95287.00
2023-05-06T01:56:24.221Z,95287.00
2023-05-06T01:57:24.215Z,95287.00
2023-05-06T01:58:24.213Z,95285.00
2023-05-06T01:59:24.214Z,95285.00
2023-05-06T02:00:24.217Z,95281.00
2023-05-06T02:01:24.235Z,95285.00
2023-05-06T02:02:24.351Z,95283.00
2023-05-06T02:03:24.417Z,95285.00
2023-05-06T02:04:24.251Z,95289.00
2023-05-06T02:05:24.286Z,95291.00
2023-05-06T02:06:24.260Z,95291.00
2023-05-06T02:07:24.252Z,95289.00
2023-05-06T02:08:24.259Z,95289.00
2023-05-06T02:09:24.270Z,95289.00
2023-05-06T02:10:24.273Z,95289.00
2023-05-06T02:11:24.295Z,95291.00
2023-05-06T02:12:24.288Z,95291.00
2023-05-06T02:13:24.305Z,95291.00
2023-05-06T02:14:24.297Z,95287.00
2023-05-06T02:15:24.313Z,95287.00
2023-05-06T02:16:24.362Z,95285.00
2023-05-06T02:17:24.356Z,95293.00
2023-05-06T02:18:24.337Z,95287.00
2023-05-06T02:19:24.343Z,95289.00
2023-05-06T02:20:24.346Z,95289.00
2023-05-06T02:21:24.469Z,95289.00
2023-05-06T02:22:24.370Z,95289.00
2023-05-06T02:23:24.373Z,95289.00
2023-05-06T02:24:24.369Z,95291.00
2023-05-06T02:25:24.384Z,95289.00
2023-05-06T02:26:24.410Z,95291.00
2023-05-06T02:27:24.385Z,95289.00
2023-05-06T02:28:24.388Z,95291.00
2023-05-06T02:29:24.391Z,95291.00
2023-05-06T02:30:24.402Z,95291.00
2023-05-06T02:31:24.466Z,95291.00
2023-05-06T02:32:24.437Z,95293.00
2023-05-06T02:33:24.425Z,95291.00
2023-05-06T02:34:24.442Z,95283.00
2023-05-06T02:35:24.460Z,95281.00
2023-05-06T02:36:24.470Z,95281.00
2023-05-06T02:37:24.576Z,95281.00
2023-05-06T02:38:24.496Z,95283.00
2023-05-06T02:39:24.493Z,95287.00
2023-05-06T02:40:24.505Z,95281.00
2023-05-06T02:41:24.514Z,95283.00
2023-05-06T02:42:24.540Z,95279.00
2023-05-06T02:43:24.522Z,95283.00
2023-05-06T02:44:24.536Z,95281.00
2023-05-06T02:45:24.550Z,95283.00
2023-05-06T02:46:24.811Z,95283.00
2023-05-06T02:47:24.624Z,95285.00
2023-05-06T02:48:24.581Z,95283.00
2023-05-06T02:49:24.593Z,95283.00
2023-05-06T02:50:24.586Z,95281.00
2023-05-06T02:51:24.599Z,95277.00
2023-05-06T02:52:24.615Z,95277.00
2023-05-06T02:53:24.691Z,95275.00
2023-05-06T02:54:24.592Z,95275.00
2023-05-06T02:55:24.611Z,95275.00
2023-05-06T02:56:24.619Z,95275.00
2023-05-06T02:57:24.629Z,95277.00
2023-05-06T02:58:24.632Z,95275.00
2023-05-06T02:59:24.633Z,95275.00
2023-05-06T03:00:24.640Z,95275.00
2023-05-06T03:01:24.752Z,95273.00
2023-05-06T03:02:24.690Z,95277.00
2023-05-06T03:03:24.645Z,95273.00
2023-05-06T03:04:24.696Z,95275.00
2023-05-06T03:05:24.657Z,95273.00
2023-05-06T03:06:24.653Z,95277.00
2023-05-06T03:07:24.669Z,95275.00
2023-05-06T03:08:24.682Z,95277.00
2023-05-06T03:09:24.791Z,95275.00
2023-05-06T03:10:24.709Z,95275.00
2023-05-06T03:11:24.714Z,95277.00
2023-05-06T03:12:24.706Z,95277.00
2023-05-06T03:13:24.715Z,95277.00
2023-05-06T03:14:24.733Z,95277.00
2023-05-06T03:15:24.742Z,95277.00
2023-05-06T03:16:24.774Z,95275.00
2023-05-06T03:17:24.763Z,95275.00
2023-05-06T03:18:24.777Z,95269.00
2023-05-06T03:19:24.783Z,95267.00
2023-05-06T03:20:24.798Z,95265.00
2023-05-06T03:21:24.823Z,95263.00
2023-05-06T03:22:24.806Z,95265.00
2023-05-06T03:23:24.815Z,95265.00
2023-05-06T03:24:24.840Z,95265.00
2023-05-06T03:25:24.862Z,95267.00
2023-05-06T03:26:24.845Z,95267.00
2023-05-06T03:27:24.893Z,95267.00
2023-05-06T03:28:24.890Z,95269.00
2023-05-06T03:29:24.915Z,95273.00
2023-05-06T03:30:24.933Z,95277.00
2023-05-06T03:31:25.024Z,95277.00
2023-05-06T03:32:25.040Z,95277.00
2023-05-06T03:33:25.012Z,95275.00
2023-05-06T03:34:25.019Z,95273.00
2023-05-06T03:35:25.050Z,95273.00
2023-05-06T03:36:25.058Z,95273.00
2023-05-06T03:37:25.073Z,95273.00
2023-05-06T03:38:25.101Z,95273.00
2023-05-06T03:39:25.122Z,95273.00
2023-05-06T03:40:25.142Z,95271.00
2023-05-06T03:41:25.262Z,95271.00
2023-05-06T03:42:25.189Z,95269.00
2023-05-06T03:43:25.195Z,95273.00
2023-05-06T03:44:25.208Z,95269.00
2023-05-06T03:45:25.242Z,95269.00
2023-05-06T03:46:25.347Z,95269.00
2023-05-06T03:47:25.369Z,95271.00
2023-05-06T03:48:25.291Z,95273.00
2023-05-06T03:49:25.316Z,95273.00
2023-05-06T03:50:25.323Z,95271.00
2023-05-06T03:51:25.351Z,95271.00
2023-05-06T03:52:25.378Z,95275.00
2023-05-06T03:53:25.379Z,95269.00
2023-05-06T03:54:25.409Z,95271.00
2023-05-06T03:55:25.433Z,95269.00
2023-05-06T03:56:25.444Z,95267.00
2023-05-06T03:57:25.555Z,95262.00
2023-05-06T03:58:25.484Z,95263.00
2023-05-06T03:59:25.507Z,95262.00
2023-05-06T04:00:25.530Z,95262.00
2023-05-06T04:01:25.546Z,95263.00
2023-05-06T04:02:25.763Z,95265.00
2023-05-06T04:03:25.668Z,95265.00
2023-05-06T04:04:25.611Z,95267.00
2023-05-06T04:05:25.643Z,95267.00
2023-05-06T04:06:25.652Z,95267.00
2023-05-06T04:07:25.694Z,95267.00
2023-05-06T04:08:25.697Z,95269.00
2023-05-06T04:09:25.728Z,95271.00
2023-05-06T04:10:25.757Z,95271.00
2023-05-06T04:11:26.664Z,95273.00
2023-05-06T04:12:26.007Z,95275.00
2023-05-06T04:13:26.108Z,95279.00
2023-05-06T04:14:26.005Z,95281.00
2023-05-06T04:15:26.034Z,95281.00
2023-05-06T04:16:26.075Z,95283.00
2023-05-06T04:17:26.107Z,95281.00
2023-05-06T04:18:26.082Z,95283.00
2023-05-06T04:19:26.107Z,95281.00
2023-05-06T04:20:26.126Z,95283.00
2023-05-06T04:21:26.162Z,95283.00
2023-05-06T04:22:26.171Z,95283.00
2023-05-06T04:23:26.190Z,95283.00
2023-05-06T04:24:26.229Z,95285.00
2023-05-06T04:25:26.242Z,95283.00
2023-05-06T04:26:26.252Z,95283.00
2023-05-06T04:27:26.271Z,95283.00
2023-05-06T04:28:26.302Z,95285.00
2023-05-06T04:29:26.418Z,95285.00
2023-05-06T04:30:26.338Z,95285.00
2023-05-06T04:31:26.399Z,95283.00
2023-05-06T04:32:26.387Z,95283.00
2023-05-06T04:33:26.396Z,95285.00
2023-05-06T04:34:26.427Z,95285.00
2023-05-06T04:35:26.452Z,95287.00
2023-05-06T04:36:26.484Z,95289.00
2023-05-06T04:37:26.496Z,95291.00
2023-05-06T04:38:26.517Z,95293.00
2023-05-06T04:39:26.548Z,95293.00
2023-05-06T04:40:26.563Z,95291.00
2023-05-06T04:41:26.588Z,95293.00
2023-05-06T04:42:26.652Z,95293.00
2023-05-06T04:43:26.663Z,95289.00
2023-05-06T04:44:26.663Z,95291.00
2023-05-06T04:45:26.758Z,95291.00
2023-05-06T04:46:26.705Z,95287.00
2023-05-06T04:47:26.767Z,95291.00
2023-05-06T04:48:27.608Z,95293.00
2023-05-06T04:49:26.767Z,95295.00
2023-05-06T04:50:26.787Z,95295.00
2023-05-06T04:51:26.823Z,95295.00
2023-05-06T04:52:26.825Z,95295.00
2023-05-06T04:53:26.855Z,95299.00
2023-05-06T04:54:26.873Z,95301.00
2023-05-06T04:55:26.890Z,95307.00
2023-05-06T04:56:26.899Z,95309.00
2023-05-06T04:57:26.920Z,95311.00
2023-05-06T04:58:26.952Z,95309.00
2023-05-06T04:59:26.982Z,95309.00
2023-05-06T05:00:27.006Z,95311.00
2023-05-06T05:01:27.126Z,95313.00
2023-05-06T05:02:27.190Z,95311.00
2023-05-06T05:03:27.261Z,95309.00
2023-05-06T05:04:27.135Z,95309.00
2023-05-06T05:05:27.149Z,95313.00
2023-05-06T05:06:27.186Z,95315.00
2023-05-06T05:07:27.231Z,95315.00
2023-05-06T05:08:27.263Z,95313.00
2023-05-06T05:09:27.321Z,95313.00
2023-05-06T05:10:27.324Z,95315.00
2023-05-06T05:11:27.365Z,95313.00
2023-05-06T05:12:27.354Z,95315.00
2023-05-06T05:13:27.387Z,95309.00
2023-05-06T05:14:27.419Z,95309.00
2023-05-06T05:15:27.442Z,95309.00
2023-05-06T05:16:27.508Z,95311.00
2023-05-06T05:17:27.727Z,95307.00
2023-05-06T05:18:27.545Z,95307.00
2023-05-06T05:19:27.576Z,95309.00
2023-05-06T05:20:27.605Z,95309.00
2023-05-06T05:21:27.660Z,95307.00
2023-05-06T05:22:27.648Z,95309.00
2023-05-06T05:23:27.678Z,95311.00
2023-05-06T05:24:27.703Z,95309.00
2023-05-06T05:25:27.719Z,95311.00
2023-05-06T05:26:27.750Z,95309.00
2023-05-06T05:27:27.786Z,95309.00
2023-05-06T05:28:27.807Z,95313.00
2023-05-06T05:29:28.469Z,95313.00
2023-05-06T05:30:27.855Z,95315.00
2023-05-06T05:31:27.973Z,95311.00
2023-05-06T05:32:27.951Z,95307.00
2023-05-06T05:33:28.075Z,95305.00
2023-05-06T05:34:27.996Z,95305.00
2023-05-06T05:35:28.031Z,95307.00
2023-05-06T05:36:28.052Z,95307.00
2023-05-06T05:37:28.082Z,95305.00
2023-05-06T05:38:28.115Z,95309.00
2023-05-06T05:39:28.143Z,95307.00
2023-05-06T05:40:28.158Z,95307.00
2023-05-06T05:41:28.214Z,95307.00
2023-05-06T05:42:28.223Z,95309.00
2023-05-06T05:43:28.254Z,95309.00
2023-05-06T05:44:28.290Z,95307.00
2023-05-06T05:45:28.339Z,95313.00
2023-05-06T05:46:28.389Z,95315.00
2023-05-06T05:47:28.416Z,95311.00
2023-05-06T05:48:28.414Z,95313.00
2023-05-06T05:49:28.620Z,95313.00
2023-05-06T05:50:28.476Z,95315.00
2023-05-06T05:51:28.503Z,95313.00
2023-05-06T05:52:28.549Z,95317.00
2023-05-06T05:53:28.571Z,95317.00
2023-05-06T05:54:28.593Z,95318.00
2023-05-06T05:55:28.642Z,95318.00
2023-05-06T05:56:28.698Z,95320.00
2023-05-06T05:57:28.708Z,95318.00
2023-05-06T05:58:28.770Z,95318.00
2023-05-06T05:59:28.834Z,95317.00
2023-05-06T06:00:28.924Z,95313.00
2023-05-06T06:01:29.013Z,95313.00
2023-05-06T06:02:29.218Z,95317.00
2023-05-06T06:03:29.336Z,95313.00
2023-05-06T06:04:29.397Z,95313.00
2023-05-06T06:05:29.574Z,95313.00
2023-05-06T06:06:29.462Z,95309.00
2023-05-06T06:07:31.243Z,95309.00
2023-05-06T06:08:29.592Z,95309.00
2023-05-06T06:09:29.608Z,95309.00
2023-05-06T06:10:29.663Z,95313.00
2023-05-06T06:11:29.675Z,95317.00
2023-05-06T06:12:29.701Z,95317.00
2023-05-06T06:13:29.914Z,95317.00
2023-05-06T06:14:29.776Z,95315.00
2023-05-06T06:15:29.823Z,95315.00
2023-05-06T06:16:29.878Z,95313.00
2023-05-06T06:17:29.927Z,95315.00
2023-05-06T06:18:30.152Z,95317.00
2023-05-06T06:19:29.979Z,95311.00
2023-05-06T06:20:30.034Z,95311.00
2023-05-06T06:21:30.358Z,95313.00
2023-05-06T06:22:30.122Z,95313.00
2023-05-06T06:23:30.167Z,95313.00
2023-05-06T06:24:30.205Z,95315.00
2023-05-06T06:25:30.237Z,95315.00
2023-05-06T06:26:30.267Z,95313.00
2023-05-06T06:27:30.296Z,95311.00
2023-05-06T06:28:30.349Z,95313.00
2023-05-06T06:29:30.370Z,95309.00
2023-05-06T06:30:30.427Z,95309.00
2023-05-06T06:31:30.455Z,95305.00
2023-05-06T06:32:30.496Z,95305.00
2023-05-06T06:33:30.575Z,95307.00
2023-05-06T06:34:30.560Z,95305.00
2023-05-06T06:35:30.627Z,95303.00
2023-05-06T06:36:30.644Z,95305.00
2023-05-06T06:37:30.707Z,95301.00
2023-05-06T06:38:30.735Z,95299.00
2023-05-06T06:39:30.755Z,95299.00
2023-05-06T06:40:30.792Z,95299.00
2023-05-06T06:41:30.851Z,95299.00
2023-05-06T06:42:30.872Z,95301.00
2023-05-06T06:43:30.910Z,95303.00
2023-05-06T06:44:30.937Z,95303.00
2023-05-06T06:45:30.996Z,95303.00
2023-05-06T06:46:31.006Z,95301.00
2023-05-06T06:47:31.120Z,95301.00
2023-05-06T06:48:31.080Z,95301.00
2023-05-06T06:49:31.148Z,95301.00
2023-05-06T06:50:31.172Z,95303.00
2023-05-06T06:51:31.261Z,95299.00
2023-05-06T06:52:31.347Z,95299.00
2023-05-06T06:53:31.551Z,95297.00
2023-05-06T06:54:31.434Z,95291.00
2023-05-06T06:55:31.494Z,95293.00
2023-05-06T06:56:31.562Z,95295.00
2023-05-06T06:57:31.643Z,95293.00
2023-05-06T06:58:31.747Z,95295.00
2023-05-06T06:59:31.846Z,95297.00
2023-05-06T07:00:32.003Z,95295.00
2023-05-06T07:01:32.106Z,95289.00
2023-05-06T07:02:32.238Z,95293.00
2023-05-06T07:03:32.251Z,95291.00
2023-05-06T07:04:32.414Z,95291.00
2023-05-06T07:05:32.467Z,95285.00
2023-05-06T07:06:32.520Z,95287.00
2023-05-06T07:07:33.166Z,95293.00
2023-05-06T07:08:32.646Z,95287.00
2023-05-06T07:09:35.073Z,95293.00
2023-05-06T07:10:32.708Z,95289.00
2023-05-06T07:11:32.743Z,95291.00
2023-05-06T07:12:32.811Z,95291.00
2023-05-06T07:13:32.808Z,95297.00
2023-05-06T07:14:32.833Z,95299.00
2023-05-06T07:15:32.857Z,95299.00
2023-05-06T07:16:32.921Z,95301.00
2023-05-06T07:17:32.940Z,95303.00
2023-05-06T07:18:32.933Z,95301.00
2023-05-06T07:19:32.978Z,95303.00
2023-05-06T07:20:33.000Z,95297.00
2023-05-06T07:21:33.024Z,95301.00
2023-05-06T07:22:33.042Z,95301.00
2023-05-06T07:23:33.065Z,95299.00
2023-05-06T07:24:33.106Z,95301.00
2023-05-06T07:25:33.255Z,95301.00
2023-05-06T07:26:33.137Z,95303.00
2023-05-06T07:27:33.164Z,95301.00
2023-05-06T07:28:33.192Z,95301.00
2023-05-06T07:29:33.227Z,95297.00
2023-05-06T07:30:33.228Z,95303.00
2023-05-06T07:31:33.360Z,95303.00
2023-05-06T07:32:33.299Z,95305.00
2023-05-06T07:33:33.304Z,95303.00
2023-05-06T07:34:33.312Z,95303.00
2023-05-06T07:35:33.329Z,95301.00
2023-05-06T07:36:33.346Z,95301.00
2023-05-06T07:37:33.367Z,95303.00
2023-05-06T07:38:33.375Z,95303.00
2023-05-06T07:39:33.400Z,95299.00
2023-05-06T07:40:33.413Z,95301.00
2023-05-06T07:41:33.554Z,95303.00
2023-05-06T07:42:33.423Z,95301.00
2023-05-06T07:43:33.432Z,95301.00
2023-05-06T07:44:33.450Z,95303.00
2023-05-06T07:45:33.473Z,95305.00
2023-05-06T07:46:33.691Z,95305.00
2023-05-06T07:47:33.556Z,95303.00
2023-05-06T07:48:33.584Z,95305.00
2023-05-06T07:49:33.520Z,95305.00
2023-05-06T07:50:33.518Z,95307.00
2023-05-06T07:51:33.530Z,95305.00
2023-05-06T07:52:33.561Z,95305.00
2023-05-06T07:53:33.560Z,95307.00
2023-05-06T07:54:33.585Z,95303.00
2023-05-06T07:55:35.181Z,95303.00
2023-05-06T07:56:33.840Z,95305.00
2023-05-06T07:57:33.944Z,95301.00
2023-05-06T07:58:33.984Z,95303.00
2023-05-06T07:59:34.051Z,95303.00
2023-05-06T08:00:34.146Z,95301.00
2023-05-06T08:01:34.165Z,95303.00
2023-05-06T08:02:34.305Z,95301.00
2023-05-06T08:03:34.413Z,95303.00
2023-05-06T08:04:34.390Z,95303.00
2023-05-06T08:05:34.464Z,95301.00
2023-05-06T08:06:34.512Z,95299.00
2023-05-06T08:07:34.595Z,95297.00
2023-05-06T08:08:34.673Z,95297.00
2023-05-06T08:09:34.752Z,95299.00
2023-05-06T08:10:34.839Z,95303.00
2023-05-06T08:11:34.920Z,95301.00
2023-05-06T08:12:35.007Z,95301.00
2023-05-06T08:13:35.113Z,95301.00
2023-05-06T08:14:35.162Z,95303.00
2023-05-06T08:15:35.254Z,95301.00
2023-05-06T08:16:35.376Z,95301.00
2023-05-06T08:17:35.403Z,95297.00
2023-05-06T08:18:35.453Z,95299.00
2023-05-06T08:19:35.525Z,95299.00
2023-05-06T08:20:35.609Z,95299.00
2023-05-06T08:21:35.670Z,95297.00
2023-05-06T08:22:35.787Z,95297.00
2023-05-06T08:23:35.826Z,95299.00
2023-05-06T08:24:35.875Z,95297.00
2023-05-06T08:25:35.943Z,95299.00
2023-05-06T08:26:35.996Z,95295.00
2023-05-06T08:27:36.037Z,95295.00
2023-05-06T08:28:36.082Z,95297.00
2023-05-06T08:29:36.205Z,95293.00
2023-05-06T08:30:36.212Z,95293.00
2023-05-06T08:31:36.281Z,95293.00
2023-05-06T08:32:36.428Z,95291.00
2023-05-06T08:33:36.390Z,95291.00
2023-05-06T08:34:36.476Z,95291.00
2023-05-06T08:35:36.556Z,95293.00
2023-05-06T08:36:36.629Z,95293.00
2023-05-06T08:37:36.686Z,95291.00
2023-05-06T08:38:36.989Z,95293.00
2023-05-06T08:39:36.827Z,95293.00
2023-05-06T08:40:36.912Z,95295.00
2023-05-06T08:41:36.971Z,95297.00
2023-05-06T08:42:37.022Z,95293.00
2023-05-06T08:43:37.089Z,95291.00
2023-05-06T08:44:37.090Z,95289.00
2023-05-06T08:45:37.155Z,95289.00
2023-05-06T08:46:37.146Z,95289.00
2023-05-06T08:47:37.196Z,95291.00
2023-05-06T08:48:37.202Z,95289.00
2023-05-06T08:49:37.221Z,95287.00
2023-05-06T08:50:37.249Z,95285.00
2023-05-06T08:51:37.268Z,95285.00
2023-05-06T08:52:37.289Z,95283.00
2023-05-06T08:53:37.358Z,95283.00
2023-05-06T08:54:37.472Z,95279.00
2023-05-06T08:55:37.467Z,95279.00
2023-05-06T08:56:37.476Z,95279.00
2023-05-06T08:57:37.532Z,95279.00
2023-05-06T08:58:37.574Z,95281.00
2023-05-06T08:59:37.615Z,95277.00
2023-05-06T09:00:37.688Z,95275.00
2023-05-06T09:01:38.068Z,95277.00
2023-05-06T09:02:39.858Z,95277.00
2023-05-06T09:03:38.053Z,95279.00
2023-05-06T09:04:37.897Z,95281.00
2023-05-06T09:05:37.880Z,95281.00
2023-05-06T09:06:37.908Z,95283.00
2023-05-06T09:07:37.926Z,95283.00
2023-05-06T09:08:37.960Z,95285.00
2023-05-06T09:09:38.032Z,95281.00
2023-05-06T09:10:38.164Z,95281.00
2023-05-06T09:11:38.164Z,95279.00
2023-05-06T09:12:38.263Z,95279.00
2023-05-06T09:13:38.299Z,95275.00
2023-05-06T09:14:38.345Z,95273.00
2023-05-06T09:15:38.406Z,95275.00
2023-05-06T09:16:38.583Z,95277.00
2023-05-06T09:17:38.697Z,95277.00
2023-05-06T09:18:38.646Z,95281.00
2023-05-06T09:19:38.689Z,95277.00
2023-05-06T09:20:38.774Z,95281.00
2023-05-06T09:21:38.865Z,95283.00
2023-05-06T09:22:38.924Z,95281.00
2023-05-06T09:23:39.011Z,95275.00
2023-05-06T09:24:39.071Z,95277.00
2023-05-06T09:25:39.166Z,95277.00
2023-05-06T09:26:39.215Z,95277.00
2023-05-06T09:27:39.279Z,95281.00
2023-05-06T09:28:39.342Z,95279.00
2023-05-06T09:29:39.392Z,95281.00
2023-05-06T09:30:39.481Z,95283.00
2023-05-06T09:31:39.514Z,95285.00
2023-05-06T09:32:40.617Z,95285.00
2023-05-06T09:33:39.733Z,95287.00
2023-05-06T09:34:39.716Z,95283.00
2023-05-06T09:35:39.702Z,95285.00
2023-05-06T09:36:39.755Z,95283.00
2023-05-06T09:37:39.797Z,95287.00
2023-05-06T09:38:39.843Z,95289.00
2023-05-06T09:39:39.942Z,95289.00
2023-05-06T09:40:39.946Z,95289.00
2023-05-06T09:41:39.970Z,95291.00
2023-05-06T09:42:40.024Z,95295.00
2023-05-06T09:43:40.057Z,95291.00
2023-05-06T09:44:40.082Z,95291.00
2023-05-06T09:45:40.123Z,95293.00
2023-05-06T09:46:40.253Z,95295.00
2023-05-06T09:47:40.258Z,95293.00
2023-05-06T09:48:40.240Z,95295.00
2023-05-06T09:49:40.433Z,95291.00
2023-05-06T09:50:40.325Z,95295.00
2023-05-06T09:51:40.350Z,95295.00
2023-05-06T09:52:40.391Z,95293.00
2023-05-06T09:53:40.416Z,95295.00
2023-05-06T09:54:40.432Z,95295.00
2023-05-06T09:55:40.461Z,95295.00
2023-05-06T09:56:40.493Z,95297.00
2023-05-06T09:57:40.522Z,95293.00
2023-05-06T09:58:40.563Z,95293.00
2023-05-06T09:59:40.594Z,95295.00
2023-05-06T10:00:40.616Z,95291.00
2023-05-06T10:01:40.663Z,95289.00
2023-05-06T10:02:40.828Z,95287.00
2023-05-06T10:03:40.844Z,95285.00
2023-05-06T10:04:40.856Z,95283.00
2023-05-06T10:05:40.894Z,95281.00
2023-05-06T10:06:40.799Z,95279.00
2023-05-06T10:07:40.778Z,95277.00
2023-05-06T10:08:40.792Z,95279.00
2023-05-06T10:09:41.818Z,95281.00
2023-05-06T10:10:40.875Z,95279.00
2023-05-06T10:11:40.851Z,95283.00
2023-05-06T10:12:40.914Z,95281.00
2023-05-06T10:13:40.901Z,95281.00
2023-05-06T10:14:40.911Z,95279.00
2023-05-06T10:15:40.934Z,95277.00
2023-05-06T10:16:41.061Z,95279.00
2023-05-06T10:17:40.995Z,95277.00
2023-05-06T10:18:40.993Z,95275.00
2023-05-06T10:19:40.997Z,95273.00
2023-05-06T10:20:41.040Z,95275.00
2023-05-06T10:21:41.138Z,95273.00
2023-05-06T10:22:41.069Z,95273.00
2023-05-06T10:23:41.068Z,95271.00
2023-05-06T10:24:41.076Z,95271.00
2023-05-06T10:25:41.112Z,95271.00
2023-05-06T10:26:41.145Z,95269.00
2023-05-06T10:27:41.149Z,95265.00
2023-05-06T10:28:41.161Z,95262.00
2023-05-06T10:29:41.183Z,95260.00
2023-05-06T10:30:41.205Z,95262.00
2023-05-06T10:31:41.266Z,95262.00
2023-05-06T10:32:41.302Z,95262.00
2023-05-06T10:33:42.456Z,95260.00
2023-05-06T10:34:41.301Z,95262.00
2023-05-06T10:35:41.352Z,95260.00
2023-05-06T10:36:41.359Z,95260.00
2023-05-06T10:37:41.561Z,95256.00
2023-05-06T10:38:41.410Z,95258.00
2023-05-06T10:39:42.197Z,95256.00
2023-05-06T10:40:41.484Z,95256.00
2023-05-06T10:41:41.530Z,95252.00
2023-05-06T10:42:41.558Z,95250.00
2023-05-06T10:43:41.597Z,95250.00
2023-05-06T10:44:41.620Z,95250.00
2023-05-06T10:45:41.652Z,95250.00
2023-05-06T10:46:41.682Z,95248.00
2023-05-06T10:47:41.730Z,95248.00
2023-05-06T10:48:41.748Z,95250.00
2023-05-06T10:49:41.788Z,95246.00
2023-05-06T10:50:41.831Z,95246.00
2023-05-06T10:51:41.878Z,95246.00
2023-05-06T10:52:41.877Z,95248.00
2023-05-06T10:53:41.949Z,95246.00
2023-05-06T10:54:41.948Z,95248.00
2023-05-06T10:55:41.988Z,95248.00
2023-05-06T10:56:42.030Z,95248.00
2023-05-06T10:57:42.056Z,95250.00
2023-05-06T10:58:42.094Z,95246.00
2023-05-06T10:59:42.141Z,95244.00
2023-05-06T11:00:42.232Z,95244.00
2023-05-06T11:01:42.217Z,95242.00
2023-05-06T11:02:42.355Z,95240.00
2023-05-06T11:03:42.364Z,95240.00
2023-05-06T11:04:42.340Z,95238.00
2023-05-06T11:05:42.377Z,95236.00
2023-05-06T11:06:42.433Z,95236.00
2023-05-06T11:07:42.447Z,95236.00
2023-05-06T11:08:43.096Z,95232.00
2023-05-06T11:09:42.800Z,95234.00
2023-05-06T11:10:42.745Z,95232.00
2023-05-06T11:11:42.791Z,95234.00
2023-05-06T11:12:42.838Z,95232.00
2023-05-06T11:13:42.863Z,95232.00
2023-05-06T11:14:42.897Z,95234.00
2023-05-06T11:15:42.934Z,95236.00
2023-05-06T11:16:43.035Z,95234.00
2023-05-06T11:17:43.088Z,95234.00
2023-05-06T11:18:43.079Z,95234.00
2023-05-06T11:19:43.116Z,95234.00
2023-05-06T11:20:43.184Z,95234.00
2023-05-06T11:21:43.200Z,95234.00
2023-05-06T11:22:43.238Z,95232.00
2023-05-06T11:23:43.293Z,95232.00
2023-05-06T11:24:43.349Z,95232.00
2023-05-06T11:25:43.473Z,95228.00
2023-05-06T11:26:43.435Z,95232.00
2023-05-06T11:27:43.471Z,95226.00
2023-05-06T11:28:43.506Z,95226.00
2023-05-06T11:29:43.555Z,95224.00
2023-05-06T11:30:43.641Z,95224.00
2023-05-06T11:31:43.643Z,95222.00
2023-05-06T11:32:43.712Z,95220.00
2023-05-06T11:33:43.750Z,95222.00
2023-05-06T11:34:43.774Z,95218.00
2023-05-06T11:35:43.807Z,95222.00
2023-05-06T11:36:43.856Z,95224.00
2023-05-06T11:37:43.939Z,95226.00
2023-05-06T11:38:43.950Z,95224.00
2023-05-06T11:39:44.037Z,95226.00
2023-05-06T11:40:44.047Z,95224.00
2023-05-06T11:41:44.181Z,95222.00
2023-05-06T11:42:44.131Z,95222.00
2023-05-06T11:43:44.171Z,95222.00
2023-05-06T11:44:44.212Z,95224.00